Time;durP1;ratioP1;P1;durP2;ratioP2;P2;SDS_P1;SDS_P2;PMS_P1;PMS_P2;Temp;Humidity;BMP_temperature;BMP_pressure;BME280_temperature;BME280_humidity;BME280_pressure;Samples;Min_cycle;Max_cycle;Signal;HPM_P1;HPM_P2
2022/03/10 00:01:59;;;;;;;6.53;3.10;;;;;;;;;;5032941;28;20084;-84
2022/03/10 00:04:25;;;;;;;6.25;3.17;;;;;;;;;;5034093;28;20053;-84
2022/03/10 00:06:52;;;;;;;7.55;4.18;;;;;;;;;;5034625;28;20045;-85
2022/03/10 00:09:18;;;;;;;7.53;3.63;;;;;;;;;;5023860;28;20108;-85
2022/03/10 00:11:47;;;;;;;6.20;3.35;;;;;;;;;;5014279;28;20088;-85
2022/03/10 00:14:14;;;;;;;8.00;3.58;;;;;;;;;;5014228;28;20060;-84
2022/03/10 00:16:41;;;;;;;7.32;3.40;;;;;;;;;;5020107;28;20081;-84
2022/03/10 00:19:08;;;;;;;7.15;3.67;;;;;;;;;;5015296;28;20123;-85
2022/03/10 00:21:34;;;;;;;7.63;3.78;;;;;;;;;;5023437;28;20097;-84
2022/03/10 00:24:01;;;;;;;7.13;3.22;;;;;;;;;;5026405;28;20089;-85
2022/03/10 00:26:27;;;;;;;8.07;3.78;;;;;;;;;;5013822;28;20088;-85
2022/03/10 00:28:55;;;;;;;6.97;3.05;;;;;;;;;;5011358;28;20096;-84
2022/03/10 00:31:22;;;;;;;7.55;3.33;;;;;;;;;;5025683;28;20120;-85
2022/03/10 00:33:48;;;;;;;6.85;2.78;;;;;;;;;;5017743;28;20045;-85
2022/03/10 00:36:15;;;;;;;6.07;3.20;;;;;;;;;;5015550;28;20088;-85
2022/03/10 00:38:42;;;;;;;8.90;3.42;;;;;;;;;;5024216;28;20661;-85
2022/03/10 00:41:09;;;;;;;9.23;3.65;;;;;;;;;;5006026;28;20050;-85
2022/03/10 00:43:35;;;;;;;6.63;3.40;;;;;;;;;;4996183;28;20723;-85
2022/03/10 00:46:03;;;;;;;7.85;4.30;;;;;;;;;;5010099;28;20072;-84
2022/03/10 00:48:30;;;;;;;6.80;4.47;;;;;;;;;;5014827;28;20046;-85
2022/03/10 00:50:57;;;;;;;9.25;3.33;;;;;;;;;;5023827;28;20092;-85
2022/03/10 00:53:23;;;;;;;7.07;3.45;;;;;;;;;;5020079;28;20045;-84
2022/03/10 00:55:50;;;;;;;6.18;3.67;;;;;;;;;;5013268;28;20559;-85
2022/03/10 00:58:16;;;;;;;7.47;3.92;;;;;;;;;;5010463;28;20069;-84
2022/03/10 01:00:43;;;;;;;9.95;4.35;;;;;;;;;;5018618;28;20535;-85
2022/03/10 01:03:11;;;;;;;6.20;3.45;;;;;;;;;;5017876;28;20128;-85
2022/03/10 01:05:37;;;;;;;8.43;3.85;;;;;;;;;;5029870;28;20081;-85
2022/03/10 01:08:05;;;;;;;9.05;4.18;;;;;;;;;;5016444;28;20100;-85
2022/03/10 01:10:31;;;;;;;8.15;3.90;;;;;;;;;;5016263;28;20061;-84
2022/03/10 01:12:59;;;;;;;8.05;4.00;;;;;;;;;;5020699;28;20076;-84
2022/03/10 01:15:27;;;;;;;6.53;3.30;;;;;;;;;;5008380;28;20049;-84
2022/03/10 01:17:54;;;;;;;8.20;4.13;;;;;;;;;;5017669;28;20539;-84
2022/03/10 01:20:24;;;;;;;9.48;3.83;;;;;;;;;;5014103;28;20485;-84
2022/03/10 01:22:51;;;;;;;8.35;4.65;;;;;;;;;;5014119;28;20149;-85
2022/03/10 01:25:19;;;;;;;9.57;4.50;;;;;;;;;;5017434;28;20057;-85
2022/03/10 01:27:46;;;;;;;8.50;4.18;;;;;;;;;;5019159;28;20836;-84
2022/03/10 01:30:13;;;;;;;10.85;3.67;;;;;;;;;;5017890;28;20065;-84
2022/03/10 01:32:40;;;;;;;9.43;4.15;;;;;;;;;;5013260;28;20096;-84
2022/03/10 01:35:08;;;;;;;10.82;5.00;;;;;;;;;;5012457;28;20046;-84
2022/03/10 01:37:37;;;;;;;8.35;4.53;;;;;;;;;;5011713;28;20053;-84
2022/03/10 01:40:05;;;;;;;8.15;3.97;;;;;;;;;;5013156;28;20050;-84
2022/03/10 01:42:35;;;;;;;8.65;4.15;;;;;;;;;;5015319;28;20404;-84
2022/03/10 01:45:02;;;;;;;9.45;4.32;;;;;;;;;;5017989;28;20472;-85
2022/03/10 01:47:28;;;;;;;10.43;4.82;;;;;;;;;;5022826;28;20120;-85
2022/03/10 01:49:58;;;;;;;8.30;4.20;;;;;;;;;;5014024;28;20623;-84
2022/03/10 01:52:25;;;;;;;10.90;4.05;;;;;;;;;;5012538;28;20057;-84
2022/03/10 01:54:54;;;;;;;9.20;4.50;;;;;;;;;;5013726;28;20105;-84
2022/03/10 01:57:20;;;;;;;8.45;3.45;;;;;;;;;;5012968;28;20157;-84
2022/03/10 01:59:47;;;;;;;9.05;4.40;;;;;;;;;;5012837;28;20073;-84
2022/03/10 02:02:13;;;;;;;7.72;3.50;;;;;;;;;;5014398;28;20073;-84
2022/03/10 02:04:41;;;;;;;6.50;3.55;;;;;;;;;;5011635;28;20149;-84
2022/03/10 02:10:16;;;;;;;8.80;4.03;;;;;;;;;;4993592;28;20460;-84
2022/03/10 02:12:41;;;;;;;8.25;3.75;;;;;;;;;;5030714;28;20064;-84
2022/03/10 02:17:56;;;;;;;7.93;3.75;;;;;;;;;;5035714;28;20108;-84
2022/03/10 02:20:23;;;;;;;7.70;4.32;;;;;;;;;;5034439;28;20068;-84
2022/03/10 02:22:51;;;;;;;11.55;5.30;;;;;;;;;;5035199;28;20096;-84
2022/03/10 02:25:21;;;;;;;8.82;3.80;;;;;;;;;;5037001;28;20054;-84
2022/03/10 02:27:50;;;;;;;8.45;4.30;;;;;;;;;;5038911;28;20080;-84
2022/03/10 02:30:17;;;;;;;8.52;3.75;;;;;;;;;;5036424;28;20088;-84
2022/03/10 02:32:44;;;;;;;6.63;3.47;;;;;;;;;;5036551;28;20085;-84
2022/03/10 02:35:10;;;;;;;10.57;5.07;;;;;;;;;;5036991;28;20072;-84
2022/03/10 02:37:37;;;;;;;7.15;3.70;;;;;;;;;;5036133;28;20083;-84
2022/03/10 02:40:06;;;;;;;11.35;4.32;;;;;;;;;;5029983;28;20050;-85
2022/03/10 02:42:34;;;;;;;7.93;4.22;;;;;;;;;;5034641;28;20107;-84
2022/03/10 02:45:01;;;;;;;11.00;4.70;;;;;;;;;;5034795;28;20132;-84
2022/03/10 02:47:28;;;;;;;8.43;4.43;;;;;;;;;;5050095;28;20057;-84
2022/03/10 02:49:54;;;;;;;6.40;3.45;;;;;;;;;;5045457;28;20487;-84
2022/03/10 02:52:21;;;;;;;8.80;4.38;;;;;;;;;;5039831;28;20053;-84
2022/03/10 02:54:47;;;;;;;9.43;3.97;;;;;;;;;;5039329;28;20543;-84
2022/03/10 02:57:16;;;;;;;8.68;3.42;;;;;;;;;;5040090;28;20053;-84
2022/03/10 02:59:43;;;;;;;9.02;5.10;;;;;;;;;;5031351;28;20057;-84
2022/03/10 03:02:10;;;;;;;8.40;3.78;;;;;;;;;;5034594;28;20065;-84
2022/03/10 03:04:37;;;;;;;10.30;3.78;;;;;;;;;;5035496;28;20050;-84
2022/03/10 03:07:04;;;;;;;9.95;4.60;;;;;;;;;;5029171;28;20108;-84
2022/03/10 03:09:31;;;;;;;8.05;4.65;;;;;;;;;;5027889;28;20485;-84
2022/03/10 03:11:57;;;;;;;7.55;4.20;;;;;;;;;;5020287;28;20101;-84
2022/03/10 03:14:26;;;;;;;9.02;4.07;;;;;;;;;;5018991;28;20096;-84
2022/03/10 03:16:54;;;;;;;8.63;3.47;;;;;;;;;;5020043;28;20049;-84
2022/03/10 03:19:21;;;;;;;9.48;4.43;;;;;;;;;;5011812;28;20113;-84
2022/03/10 03:21:48;;;;;;;9.18;4.30;;;;;;;;;;5009898;28;20076;-84
2022/03/10 03:24:14;;;;;;;8.45;3.63;;;;;;;;;;5019469;28;20463;-84
2022/03/10 03:26:41;;;;;;;9.77;3.83;;;;;;;;;;5014395;28;20100;-84
2022/03/10 03:29:08;;;;;;;8.27;3.35;;;;;;;;;;5014337;28;20050;-84
2022/03/10 03:31:36;;;;;;;7.20;3.70;;;;;;;;;;5015544;28;20081;-84
2022/03/10 03:34:09;;;;;;;9.50;4.40;;;;;;;;;;5021652;28;20052;-84
2022/03/10 03:36:36;;;;;;;9.05;3.47;;;;;;;;;;5021050;28;20063;-84
2022/03/10 03:39:02;;;;;;;10.00;5.50;;;;;;;;;;5027434;28;20092;-84
2022/03/10 03:41:29;;;;;;;7.57;3.92;;;;;;;;;;5016709;28;20092;-84
2022/03/10 03:43:56;;;;;;;6.55;4.05;;;;;;;;;;5014764;28;20050;-84
2022/03/10 03:46:22;;;;;;;7.65;4.10;;;;;;;;;;5016058;28;20077;-84
2022/03/10 03:48:58;;;;;;;11.23;3.97;;;;;;;;;;5021747;28;20076;-84
2022/03/10 03:51:25;;;;;;;6.93;3.67;;;;;;;;;;5003319;28;20057;-84
2022/03/10 03:53:52;;;;;;;8.35;3.85;;;;;;;;;;5014546;28;20045;-84
2022/03/10 03:56:19;;;;;;;8.52;4.35;;;;;;;;;;5016126;28;20072;-84
2022/03/10 03:58:45;;;;;;;8.65;4.30;;;;;;;;;;5018181;28;20060;-84
2022/03/10 04:01:12;;;;;;;9.90;3.78;;;;;;;;;;5012130;28;20054;-84
2022/03/10 04:03:39;;;;;;;10.25;4.68;;;;;;;;;;5025138;28;20049;-85
2022/03/10 04:06:16;;;;;;;9.75;3.97;;;;;;;;;;5030994;28;20478;-85
2022/03/10 04:08:49;;;;;;;10.48;4.53;;;;;;;;;;5022404;28;20052;-84
2022/03/10 04:11:16;;;;;;;6.53;3.88;;;;;;;;;;5016566;28;20074;-85
2022/03/10 04:13:42;;;;;;;6.80;3.38;;;;;;;;;;5031999;28;20542;-85
2022/03/10 04:16:09;;;;;;;8.38;4.47;;;;;;;;;;5025280;28;20085;-84
2022/03/10 04:18:36;;;;;;;8.55;4.55;;;;;;;;;;5018754;28;20056;-85
2022/03/10 04:21:03;;;;;;;10.07;4.70;;;;;;;;;;5022283;28;20408;-84
2022/03/10 04:23:31;;;;;;;10.20;4.43;;;;;;;;;;5031878;28;20037;-84
2022/03/10 04:25:58;;;;;;;7.13;3.50;;;;;;;;;;5022707;28;20617;-84
2022/03/10 04:28:24;;;;;;;11.38;4.35;;;;;;;;;;5012865;28;20081;-84
2022/03/10 04:30:51;;;;;;;7.78;4.10;;;;;;;;;;5017111;28;20081;-84
2022/03/10 04:33:18;;;;;;;10.80;5.20;;;;;;;;;;5021541;28;20081;-84
2022/03/10 04:35:45;;;;;;;7.50;3.58;;;;;;;;;;5015056;28;20073;-85
2022/03/10 04:38:11;;;;;;;14.07;4.70;;;;;;;;;;5029792;28;20050;-84
2022/03/10 04:40:39;;;;;;;6.38;3.75;;;;;;;;;;5013999;28;20062;-85
2022/03/10 04:43:06;;;;;;;8.85;3.90;;;;;;;;;;5010064;28;20042;-84
2022/03/10 04:45:32;;;;;;;10.82;4.43;;;;;;;;;;5017418;28;20045;-84
2022/03/10 04:47:59;;;;;;;11.23;4.82;;;;;;;;;;5024415;28;20045;-84
2022/03/10 04:50:26;;;;;;;7.68;4.55;;;;;;;;;;5016451;28;20053;-84
2022/03/10 04:52:53;;;;;;;12.68;4.57;;;;;;;;;;5014137;28;20101;-84
2022/03/10 04:55:19;;;;;;;8.25;4.25;;;;;;;;;;5014087;28;20073;-85
2022/03/10 04:57:47;;;;;;;11.07;5.25;;;;;;;;;;5015971;28;20149;-84
2022/03/10 05:00:18;;;;;;;8.55;4.47;;;;;;;;;;5029868;28;20661;-84
2022/03/10 05:02:46;;;;;;;13.65;5.07;;;;;;;;;;5019924;28;20041;-84
2022/03/10 05:05:13;;;;;;;10.52;4.80;;;;;;;;;;5013971;28;20512;-84
2022/03/10 05:07:40;;;;;;;8.07;4.32;;;;;;;;;;5013239;28;20424;-84
2022/03/10 05:10:08;;;;;;;9.35;4.93;;;;;;;;;;5015356;28;20505;-84
2022/03/10 05:12:34;;;;;;;7.38;3.83;;;;;;;;;;5012075;28;20531;-84
2022/03/10 05:15:02;;;;;;;12.38;4.22;;;;;;;;;;5012906;28;20085;-84
2022/03/10 05:17:29;;;;;;;12.30;4.95;;;;;;;;;;5015880;28;20045;-84
2022/03/10 05:19:55;;;;;;;8.80;4.15;;;;;;;;;;5016431;28;20132;-85
2022/03/10 05:22:22;;;;;;;10.15;3.90;;;;;;;;;;5012381;28;20096;-85
2022/03/10 05:24:48;;;;;;;14.48;5.68;;;;;;;;;;5020935;28;20560;-85
2022/03/10 05:27:15;;;;;;;9.95;4.82;;;;;;;;;;5002888;28;20065;-85
2022/03/10 05:29:43;;;;;;;9.60;4.82;;;;;;;;;;5015240;28;20108;-85
2022/03/10 05:32:12;;;;;;;10.27;5.00;;;;;;;;;;5005135;28;20487;-85
2022/03/10 05:34:38;;;;;;;10.70;5.15;;;;;;;;;;5012594;28;20488;-85
2022/03/10 05:37:05;;;;;;;10.30;3.70;;;;;;;;;;5014423;28;20138;-85
2022/03/10 05:39:31;;;;;;;10.57;4.95;;;;;;;;;;5021491;28;20124;-87
2022/03/10 05:41:58;;;;;;;10.95;4.60;;;;;;;;;;5009879;28;20081;-85
2022/03/10 05:44:25;;;;;;;13.18;5.60;;;;;;;;;;5008340;28;20467;-85
2022/03/10 05:46:51;;;;;;;12.93;4.70;;;;;;;;;;5012066;28;20109;-85
2022/03/10 05:49:19;;;;;;;12.60;4.03;;;;;;;;;;5017372;28;20436;-84
2022/03/10 05:51:46;;;;;;;10.20;4.95;;;;;;;;;;5018589;28;20046;-85
2022/03/10 05:54:12;;;;;;;8.93;4.53;;;;;;;;;;5016701;28;20101;-85
2022/03/10 05:56:39;;;;;;;11.82;4.97;;;;;;;;;;5010174;28;20090;-85
2022/03/10 05:59:06;;;;;;;10.93;4.57;;;;;;;;;;5014397;28;20061;-85
2022/03/10 06:01:32;;;;;;;7.10;4.05;;;;;;;;;;5016877;28;20070;-84
2022/03/10 06:03:59;;;;;;;8.23;4.25;;;;;;;;;;5017768;28;20128;-84
2022/03/10 06:06:27;;;;;;;8.05;3.75;;;;;;;;;;5018072;28;20076;-84
2022/03/10 06:08:53;;;;;;;10.68;4.78;;;;;;;;;;5019143;28;20088;-85
2022/03/10 06:11:20;;;;;;;9.35;4.28;;;;;;;;;;5043305;28;20092;-85
2022/03/10 06:13:47;;;;;;;10.63;5.82;;;;;;;;;;5034332;28;20161;-85
2022/03/10 06:16:13;;;;;;;10.90;4.80;;;;;;;;;;5036862;28;20041;-85
2022/03/10 06:18:40;;;;;;;8.10;4.43;;;;;;;;;;5035149;28;20132;-85
2022/03/10 06:21:06;;;;;;;11.98;5.63;;;;;;;;;;5045129;28;20065;-85
2022/03/10 06:23:34;;;;;;;10.80;5.05;;;;;;;;;;5040141;28;20108;-85
2022/03/10 06:26:01;;;;;;;13.45;5.00;;;;;;;;;;5035589;28;20053;-85
2022/03/10 06:28:27;;;;;;;11.10;5.25;;;;;;;;;;5039188;28;20118;-85
2022/03/10 06:30:54;;;;;;;9.10;4.78;;;;;;;;;;5042960;28;20131;-85
2022/03/10 06:33:20;;;;;;;16.20;6.05;;;;;;;;;;5038319;28;20048;-85
2022/03/10 06:35:47;;;;;;;14.15;6.38;;;;;;;;;;5031200;28;20129;-85
2022/03/10 06:38:14;;;;;;;11.27;5.18;;;;;;;;;;5035452;28;20041;-85
2022/03/10 06:40:42;;;;;;;13.45;5.70;;;;;;;;;;5038349;28;20151;-85
2022/03/10 06:43:08;;;;;;;15.32;6.03;;;;;;;;;;5039858;28;20073;-85
2022/03/10 06:45:35;;;;;;;14.00;6.10;;;;;;;;;;5037670;28;20053;-85
2022/03/10 06:48:02;;;;;;;10.13;5.60;;;;;;;;;;5036052;28;20125;-85
2022/03/10 06:50:29;;;;;;;13.10;6.07;;;;;;;;;;5049149;28;20072;-85
2022/03/10 06:52:57;;;;;;;12.45;5.55;;;;;;;;;;5037257;28;20600;-85
2022/03/10 06:55:24;;;;;;;17.20;7.30;;;;;;;;;;5032418;28;20096;-85
2022/03/10 06:57:52;;;;;;;16.60;6.60;;;;;;;;;;5036234;28;20487;-85
2022/03/10 07:00:20;;;;;;;13.93;6.22;;;;;;;;;;5033870;28;20133;-86
2022/03/10 07:02:46;;;;;;;12.65;5.50;;;;;;;;;;5034576;28;20045;-86
2022/03/10 07:05:13;;;;;;;16.88;9.00;;;;;;;;;;5040093;28;20080;-85
2022/03/10 07:07:40;;;;;;;13.15;5.53;;;;;;;;;;5033716;28;20567;-86
2022/03/10 07:10:08;;;;;;;14.00;5.47;;;;;;;;;;5036628;28;20136;-85
2022/03/10 07:12:35;;;;;;;15.13;6.40;;;;;;;;;;5038606;28;20084;-85
2022/03/10 07:15:05;;;;;;;12.50;5.82;;;;;;;;;;5036829;28;20108;-85
2022/03/10 07:17:31;;;;;;;19.58;6.55;;;;;;;;;;5034301;28;20088;-85
2022/03/10 07:19:58;;;;;;;18.38;7.10;;;;;;;;;;5038380;28;20083;-85
2022/03/10 07:22:25;;;;;;;12.40;7.00;;;;;;;;;;5044412;28;20136;-85
2022/03/10 07:24:52;;;;;;;15.52;7.65;;;;;;;;;;5034102;28;20140;-85
2022/03/10 07:27:19;;;;;;;16.75;7.47;;;;;;;;;;5034950;28;20460;-85
2022/03/10 07:29:45;;;;;;;16.98;8.13;;;;;;;;;;5035602;28;20069;-85
2022/03/10 07:32:13;;;;;;;22.27;9.68;;;;;;;;;;5039910;28;20053;-85
2022/03/10 07:34:40;;;;;;;17.98;8.35;;;;;;;;;;5033335;28;20045;-85
2022/03/10 07:37:06;;;;;;;20.73;9.50;;;;;;;;;;5033933;28;20076;-85
2022/03/10 07:39:33;;;;;;;17.52;9.70;;;;;;;;;;5033662;28;20088;-85
2022/03/10 07:42:00;;;;;;;22.85;9.98;;;;;;;;;;5034843;28;20120;-85
2022/03/10 07:44:27;;;;;;;16.55;9.43;;;;;;;;;;5034516;28;20415;-86
2022/03/10 07:46:53;;;;;;;23.30;10.40;;;;;;;;;;5033371;28;20079;-86
2022/03/10 07:49:22;;;;;;;19.00;9.02;;;;;;;;;;5038483;28;20083;-85
2022/03/10 07:51:48;;;;;;;20.13;9.50;;;;;;;;;;5041771;28;20068;-85
2022/03/10 07:54:15;;;;;;;20.98;8.77;;;;;;;;;;5032971;28;20536;-85
2022/03/10 07:56:41;;;;;;;16.52;9.77;;;;;;;;;;5033152;28;20103;-85
2022/03/10 07:59:08;;;;;;;15.88;8.52;;;;;;;;;;5030948;28;20472;-85
2022/03/10 08:01:35;;;;;;;19.05;9.50;;;;;;;;;;5038534;28;20053;-85
2022/03/10 08:04:02;;;;;;;20.40;8.82;;;;;;;;;;5036498;28;20077;-85
2022/03/10 08:06:31;;;;;;;17.67;9.90;;;;;;;;;;5032632;28;20724;-85
2022/03/10 08:08:57;;;;;;;17.95;9.70;;;;;;;;;;5047472;28;20049;-85
2022/03/10 08:11:24;;;;;;;18.55;9.32;;;;;;;;;;5014982;28;20472;-85
2022/03/10 08:13:51;;;;;;;15.88;9.77;;;;;;;;;;5016951;28;20053;-85
2022/03/10 08:16:18;;;;;;;21.65;10.88;;;;;;;;;;5012936;28;20098;-86
2022/03/10 08:18:45;;;;;;;16.90;9.73;;;;;;;;;;5014209;28;20058;-85
2022/03/10 08:21:12;;;;;;;16.50;9.75;;;;;;;;;;5009089;28;20401;-86
2022/03/10 08:23:40;;;;;;;19.77;10.32;;;;;;;;;;5017825;28;20088;-85
2022/03/10 08:26:06;;;;;;;16.50;9.52;;;;;;;;;;5014219;28;20077;-85
2022/03/10 08:28:34;;;;;;;15.00;9.07;;;;;;;;;;5011739;28;20477;-86
2022/03/10 08:31:01;;;;;;;19.40;8.23;;;;;;;;;;5012319;28;20050;-86
2022/03/10 08:33:28;;;;;;;15.50;8.93;;;;;;;;;;5013432;28;20141;-86
2022/03/10 08:35:55;;;;;;;13.38;7.95;;;;;;;;;;5012855;28;20092;-87
2022/03/10 08:38:21;;;;;;;13.10;6.78;;;;;;;;;;5010171;28;20060;-86
2022/03/10 08:40:49;;;;;;;10.07;6.53;;;;;;;;;;5005573;28;20077;-86
2022/03/10 08:43:16;;;;;;;13.68;8.27;;;;;;;;;;5013884;28;20076;-86
2022/03/10 08:45:43;;;;;;;11.93;7.15;;;;;;;;;;5015341;28;20073;-86
2022/03/10 08:48:10;;;;;;;11.93;5.93;;;;;;;;;;5005262;28;20142;-86
2022/03/10 08:50:36;;;;;;;12.10;7.10;;;;;;;;;;5010633;28;20056;-86
2022/03/10 08:53:03;;;;;;;9.52;6.57;;;;;;;;;;5003058;28;20069;-86
2022/03/10 08:55:30;;;;;;;11.40;6.78;;;;;;;;;;5011090;28;20089;-86
2022/03/10 08:57:58;;;;;;;10.68;6.68;;;;;;;;;;5009864;28;20161;-86
2022/03/10 09:00:24;;;;;;;11.45;6.20;;;;;;;;;;5014567;28;20077;-86
2022/03/10 09:02:51;;;;;;;10.82;6.13;;;;;;;;;;5021332;28;20084;-86
2022/03/10 09:05:17;;;;;;;9.57;6.22;;;;;;;;;;5016140;28;20132;-86
2022/03/10 09:07:44;;;;;;;11.43;6.22;;;;;;;;;;5014293;28;20085;-86
2022/03/10 09:10:11;;;;;;;9.32;5.88;;;;;;;;;;5019681;28;20116;-86
2022/03/10 09:12:39;;;;;;;10.57;6.05;;;;;;;;;;5008026;28;20472;-86
2022/03/10 09:15:08;;;;;;;10.63;5.80;;;;;;;;;;5009920;28;20423;-86
2022/03/10 09:17:35;;;;;;;9.38;5.68;;;;;;;;;;5007527;28;20055;-86
2022/03/10 09:20:04;;;;;;;10.00;6.45;;;;;;;;;;5010701;28;20141;-86
2022/03/10 09:22:31;;;;;;;9.43;5.25;;;;;;;;;;5008625;28;20046;-86
2022/03/10 09:24:58;;;;;;;11.98;5.80;;;;;;;;;;5015380;28;20069;-86
2022/03/10 09:27:24;;;;;;;9.18;5.18;;;;;;;;;;5009184;28;20081;-86
2022/03/10 09:29:51;;;;;;;12.98;5.70;;;;;;;;;;5014731;28;20596;-86
2022/03/10 09:32:19;;;;;;;8.60;5.53;;;;;;;;;;5008065;28;20101;-86
2022/03/10 09:34:45;;;;;;;11.82;5.90;;;;;;;;;;5008012;28;20076;-86
2022/03/10 09:37:12;;;;;;;10.63;5.55;;;;;;;;;;5005062;28;20081;-86
2022/03/10 09:39:39;;;;;;;11.20;5.80;;;;;;;;;;5011809;28;20045;-86
2022/03/10 09:42:06;;;;;;;9.73;5.53;;;;;;;;;;5009170;28;20069;-86
2022/03/10 09:44:36;;;;;;;9.60;4.90;;;;;;;;;;5007300;28;20554;-86
2022/03/10 09:47:03;;;;;;;10.55;5.55;;;;;;;;;;5011919;28;20054;-86
2022/03/10 09:49:34;;;;;;;7.85;4.70;;;;;;;;;;5016822;28;20140;-87
2022/03/10 09:52:08;;;;;;;8.73;5.47;;;;;;;;;;5012155;28;20085;-87
2022/03/10 09:54:35;;;;;;;8.18;5.25;;;;;;;;;;5006953;28;20184;-87
2022/03/10 09:57:02;;;;;;;10.93;5.13;;;;;;;;;;5009498;28;20130;-87
2022/03/10 09:59:30;;;;;;;7.78;4.53;;;;;;;;;;5000343;28;20417;-86
2022/03/10 10:01:56;;;;;;;9.45;5.60;;;;;;;;;;5013897;28;20050;-86
2022/03/10 10:04:23;;;;;;;7.75;4.82;;;;;;;;;;5005705;28;20100;-86
2022/03/10 10:07:05;;;;;;;9.95;5.25;;;;;;;;;;5018556;28;20440;-86
2022/03/10 10:09:42;;;;;;;8.35;4.55;;;;;;;;;;5008365;28;20103;-86
2022/03/10 10:12:38;;;;;;;9.50;5.70;;;;;;;;;;5036626;28;20519;-86
2022/03/10 10:15:10;;;;;;;9.75;5.55;;;;;;;;;;5024672;28;20049;-86
2022/03/10 10:17:36;;;;;;;10.68;5.10;;;;;;;;;;5034314;28;20068;-87
2022/03/10 10:20:05;;;;;;;10.18;5.50;;;;;;;;;;5044240;28;20060;-87
2022/03/10 10:22:33;;;;;;;10.18;5.00;;;;;;;;;;5048240;28;20041;-86
2022/03/10 10:25:02;;;;;;;10.57;4.57;;;;;;;;;;5031388;28;20108;-86
2022/03/10 10:27:32;;;;;;;13.20;6.88;;;;;;;;;;5021827;28;20074;-86
2022/03/10 10:30:00;;;;;;;7.35;5.10;;;;;;;;;;5028690;28;20044;-86
2022/03/10 10:32:31;;;;;;;10.25;4.85;;;;;;;;;;5032023;28;20088;-86
2022/03/10 10:35:02;;;;;;;17.20;9.18;;;;;;;;;;5033405;28;20068;-86
2022/03/10 10:37:30;;;;;;;8.55;5.47;;;;;;;;;;5034010;28;20130;-86
2022/03/10 10:39:59;;;;;;;9.32;5.13;;;;;;;;;;5046681;28;20053;-86
2022/03/10 10:42:30;;;;;;;8.88;5.60;;;;;;;;;;5035766;28;20053;-86
2022/03/10 10:44:58;;;;;;;7.95;4.85;;;;;;;;;;5035715;28;20041;-86
2022/03/10 10:47:26;;;;;;;9.15;5.45;;;;;;;;;;5038836;28;20137;-86
2022/03/10 10:50:01;;;;;;;10.07;5.28;;;;;;;;;;5035915;28;20152;-86
2022/03/10 10:52:37;;;;;;;9.20;5.97;;;;;;;;;;5033392;28;20135;-86
2022/03/10 10:55:07;;;;;;;9.50;4.95;;;;;;;;;;5032719;28;20084;-86
2022/03/10 10:57:35;;;;;;;9.18;5.25;;;;;;;;;;5031645;28;20752;-86
2022/03/10 11:00:09;;;;;;;8.35;5.18;;;;;;;;;;5035375;28;20456;-86
2022/03/10 11:02:36;;;;;;;8.98;4.90;;;;;;;;;;5037827;28;20518;-86
2022/03/10 11:05:03;;;;;;;9.75;4.43;;;;;;;;;;5036868;28;20065;-86
2022/03/10 11:07:29;;;;;;;8.93;4.97;;;;;;;;;;5038691;28;20069;-86
2022/03/10 11:09:56;;;;;;;11.50;5.10;;;;;;;;;;5038413;28;20575;-85
2022/03/10 11:12:24;;;;;;;6.97;4.00;;;;;;;;;;5032107;28;20566;-85
2022/03/10 11:14:50;;;;;;;7.60;4.60;;;;;;;;;;5034924;28;20500;-86
2022/03/10 11:17:19;;;;;;;7.50;3.90;;;;;;;;;;5033499;28;20045;-86
2022/03/10 11:19:47;;;;;;;8.25;4.38;;;;;;;;;;5038146;28;20114;-86
2022/03/10 11:22:27;;;;;;;7.53;5.22;;;;;;;;;;5032418;28;20132;-86
2022/03/10 11:25:10;;;;;;;11.13;5.22;;;;;;;;;;5041611;28;20115;-85
2022/03/10 11:27:40;;;;;;;10.48;5.13;;;;;;;;;;5030723;28;20049;-86
2022/03/10 11:30:08;;;;;;;10.02;5.10;;;;;;;;;;5029967;28;20046;-85
2022/03/10 11:32:34;;;;;;;7.00;4.95;;;;;;;;;;5032585;28;20069;-85
2022/03/10 11:35:01;;;;;;;7.32;4.38;;;;;;;;;;5035366;28;20080;-85
2022/03/10 11:37:36;;;;;;;11.18;4.55;;;;;;;;;;5031914;28;20080;-86
2022/03/10 11:40:04;;;;;;;8.65;4.05;;;;;;;;;;5044696;28;20136;-86
2022/03/10 11:42:32;;;;;;;8.30;3.88;;;;;;;;;;5037562;28;20073;-86
2022/03/10 11:45:11;;;;;;;7.13;4.68;;;;;;;;;;5030130;28;20038;-85
2022/03/10 11:47:39;;;;;;;8.07;4.68;;;;;;;;;;5026290;28;20508;-85
2022/03/10 11:50:27;;;;;;;9.48;5.28;;;;;;;;;;5030344;28;20088;-85
2022/03/10 11:52:58;;;;;;;8.30;5.07;;;;;;;;;;5032548;28;20148;-86
2022/03/10 11:55:25;;;;;;;6.97;4.30;;;;;;;;;;5035492;28;20081;-86
2022/03/10 11:58:05;;;;;;;6.47;4.00;;;;;;;;;;5029398;28;20132;-85
2022/03/10 12:00:50;;;;;;;10.40;5.93;;;;;;;;;;5037485;28;20089;-86
2022/03/10 12:03:30;;;;;;;8.25;4.82;;;;;;;;;;5032210;28;20104;-86
2022/03/10 12:05:58;;;;;;;9.90;5.40;;;;;;;;;;5046300;28;20045;-85
2022/03/10 12:08:33;;;;;;;12.05;4.95;;;;;;;;;;5041439;28;20085;-86
2022/03/10 12:11:02;;;;;;;9.95;5.65;;;;;;;;;;5035777;28;20045;-86
2022/03/10 12:13:30;;;;;;;10.35;5.10;;;;;;;;;;5032973;28;20081;-86
2022/03/10 12:15:59;;;;;;;9.38;4.70;;;;;;;;;;5029948;28;20080;-86
2022/03/10 12:18:30;;;;;;;7.95;4.78;;;;;;;;;;5033759;28;20049;-85
2022/03/10 12:20:58;;;;;;;8.35;5.07;;;;;;;;;;5036419;28;20706;-85
2022/03/10 12:23:26;;;;;;;8.60;4.15;;;;;;;;;;5028388;28;20136;-86
2022/03/10 12:25:55;;;;;;;7.63;3.88;;;;;;;;;;5030481;28;20052;-86
2022/03/10 12:28:29;;;;;;;8.05;4.15;;;;;;;;;;5027192;28;20056;-86
2022/03/10 12:31:06;;;;;;;8.93;4.22;;;;;;;;;;5028540;28;20396;-85
2022/03/10 12:33:33;;;;;;;7.53;4.13;;;;;;;;;;5028701;28;20073;-86
2022/03/10 12:36:01;;;;;;;7.93;4.20;;;;;;;;;;5033819;28;20048;-86
2022/03/10 12:38:41;;;;;;;9.43;4.85;;;;;;;;;;5037780;28;20543;-86
2022/03/10 12:41:08;;;;;;;7.78;4.45;;;;;;;;;;5029876;28;20106;-86
2022/03/10 12:43:35;;;;;;;7.95;4.18;;;;;;;;;;5030850;28;20061;-86
2022/03/10 12:46:01;;;;;;;5.35;3.53;;;;;;;;;;5040185;28;20144;-85
2022/03/10 12:48:35;;;;;;;7.22;3.92;;;;;;;;;;5034738;28;20555;-86
2022/03/10 12:51:01;;;;;;;6.57;3.88;;;;;;;;;;5037057;28;20750;-86
2022/03/10 12:53:31;;;;;;;5.78;3.50;;;;;;;;;;5030869;28;20073;-86
2022/03/10 12:55:58;;;;;;;7.55;4.05;;;;;;;;;;5031273;28;20088;-86
2022/03/10 12:58:29;;;;;;;6.82;4.22;;;;;;;;;;5029119;28;20523;-86
2022/03/10 13:01:05;;;;;;;6.13;3.17;;;;;;;;;;5031716;28;20100;-86
2022/03/10 13:03:36;;;;;;;6.27;3.37;;;;;;;;;;5026285;28;20136;-85
2022/03/10 13:06:03;;;;;;;9.43;3.67;;;;;;;;;;5023385;28;20077;-86
2022/03/10 13:08:30;;;;;;;5.53;3.35;;;;;;;;;;5029759;28;20045;-85
2022/03/10 13:11:00;;;;;;;6.75;3.40;;;;;;;;;;5024443;28;20144;-85
2022/03/10 13:13:30;;;;;;;6.10;3.50;;;;;;;;;;5027414;28;20123;-85
2022/03/10 13:16:00;;;;;;;7.80;3.72;;;;;;;;;;5030216;28;20049;-86
2022/03/10 13:18:27;;;;;;;5.93;3.15;;;;;;;;;;5026346;28;20116;-85
2022/03/10 13:20:59;;;;;;;6.20;3.80;;;;;;;;;;5027083;28;20667;-86
2022/03/10 13:23:28;;;;;;;9.30;3.83;;;;;;;;;;5024503;28;20081;-85
2022/03/10 13:25:54;;;;;;;6.50;3.10;;;;;;;;;;5026186;28;20752;-86
2022/03/10 13:28:21;;;;;;;7.05;3.83;;;;;;;;;;5026945;28;20049;-86
2022/03/10 13:30:48;;;;;;;4.97;2.53;;;;;;;;;;5026086;28;20490;-85
2022/03/10 13:33:16;;;;;;;5.38;2.90;;;;;;;;;;5028190;28;20053;-85
2022/03/10 13:35:45;;;;;;;4.43;2.78;;;;;;;;;;5027278;28;20124;-85
2022/03/10 13:38:18;;;;;;;4.55;2.60;;;;;;;;;;5024193;28;20069;-85
2022/03/10 13:40:45;;;;;;;4.97;3.22;;;;;;;;;;5027933;28;20053;-85
2022/03/10 13:43:20;;;;;;;5.47;3.47;;;;;;;;;;5026227;28;20140;-86
2022/03/10 13:45:50;;;;;;;4.82;2.92;;;;;;;;;;5028893;28;20068;-85
2022/03/10 13:48:19;;;;;;;5.85;2.80;;;;;;;;;;5025116;28;20717;-85
2022/03/10 13:50:46;;;;;;;5.07;3.05;;;;;;;;;;5027287;28;20049;-86
2022/03/10 13:53:20;;;;;;;6.70;3.10;;;;;;;;;;5024513;28;20411;-86
2022/03/10 13:55:49;;;;;;;6.15;3.17;;;;;;;;;;5028953;28;20103;-86
2022/03/10 13:58:17;;;;;;;8.98;4.18;;;;;;;;;;5025349;28;20092;-85
2022/03/10 14:00:45;;;;;;;5.90;3.83;;;;;;;;;;5025021;28;20527;-85
2022/03/10 14:03:13;;;;;;;7.28;3.08;;;;;;;;;;5029216;28;20570;-85
2022/03/10 14:05:44;;;;;;;7.53;2.72;;;;;;;;;;5025456;28;20073;-86
2022/03/10 14:08:12;;;;;;;7.03;3.17;;;;;;;;;;5026354;28;20041;-86
2022/03/10 14:10:41;;;;;;;5.13;2.85;;;;;;;;;;5027248;28;20079;-85
2022/03/10 14:13:08;;;;;;;4.53;2.85;;;;;;;;;;5029794;28;20128;-86
2022/03/10 14:15:36;;;;;;;7.25;2.53;;;;;;;;;;5027807;28;20564;-86
2022/03/10 14:18:08;;;;;;;5.68;2.75;;;;;;;;;;5027467;28;20060;-85
2022/03/10 14:20:46;;;;;;;5.25;3.03;;;;;;;;;;5027666;28;20079;-85
2022/03/10 14:23:16;;;;;;;8.00;3.17;;;;;;;;;;5030539;28;20053;-85
2022/03/10 14:25:45;;;;;;;5.60;3.22;;;;;;;;;;5029948;28;20045;-85
2022/03/10 14:28:13;;;;;;;7.32;4.55;;;;;;;;;;5027268;28;20107;-86
2022/03/10 14:30:40;;;;;;;7.00;3.42;;;;;;;;;;5029036;28;20089;-86
2022/03/10 14:33:06;;;;;;;9.55;4.18;;;;;;;;;;5031724;28;20136;-85
2022/03/10 14:35:33;;;;;;;8.20;3.55;;;;;;;;;;5028374;28;20518;-86
2022/03/10 14:38:00;;;;;;;7.35;3.00;;;;;;;;;;5027777;28;20111;-87
2022/03/10 14:40:26;;;;;;;7.03;3.92;;;;;;;;;;5031072;28;20139;-86
2022/03/10 14:42:54;;;;;;;5.18;3.13;;;;;;;;;;5027730;28;20072;-84
2022/03/10 14:45:21;;;;;;;7.00;3.80;;;;;;;;;;5029717;28;20160;-83
2022/03/10 14:47:48;;;;;;;5.65;3.40;;;;;;;;;;5027984;28;21114;-84
2022/03/10 14:50:14;;;;;;;5.53;3.30;;;;;;;;;;5028051;28;20120;-83